createdAt,value
2018-07-03T00:00:35.604Z,1.60
2018-07-03T00:03:03.743Z,1.40
2018-07-03T00:05:31.855Z,1.67
2018-07-03T00:07:59.955Z,1.50
2018-07-03T00:10:28.048Z,1.30
2018-07-03T00:12:56.111Z,1.60
2018-07-03T00:15:24.236Z,1.43
2018-07-03T00:17:52.354Z,1.60
2018-07-03T00:20:20.440Z,1.90
2018-07-03T00:22:48.567Z,1.73
2018-07-03T00:25:16.675Z,1.87
2018-07-03T00:27:44.799Z,2.13
2018-07-03T00:30:12.914Z,1.80
2018-07-03T00:32:41.031Z,2.10
2018-07-03T00:35:09.114Z,1.60
2018-07-03T00:37:37.199Z,1.87
2018-07-03T00:40:05.129Z,2.10
2018-07-03T00:42:33.241Z,1.97
2018-07-03T00:45:01.336Z,1.60
2018-07-03T00:47:29.417Z,2.10
2018-07-03T00:49:57.533Z,2.13
2018-07-03T00:52:25.633Z,1.80
2018-07-03T00:54:53.506Z,2.13
2018-07-03T00:57:21.625Z,1.90
2018-07-03T01:00:01.049Z,2.00
2018-07-03T01:02:29.140Z,1.80
2018-07-03T01:04:57.223Z,1.90
2018-07-03T01:07:25.330Z,2.20
2018-07-03T01:09:53.203Z,2.10
2018-07-03T01:12:21.327Z,1.70
2018-07-03T01:14:49.423Z,2.10
2018-07-03T01:17:17.563Z,1.80
2018-07-03T01:19:45.651Z,2.37
2018-07-03T01:22:13.782Z,2.13
2018-07-03T01:24:41.904Z,1.83
2018-07-03T01:27:10.020Z,2.10
2018-07-03T01:29:38.189Z,2.20
2018-07-03T01:32:06.092Z,2.17
2018-07-03T01:34:34.218Z,2.03
2018-07-03T01:37:02.324Z,1.90
2018-07-03T01:39:30.426Z,1.90
2018-07-03T01:41:58.571Z,2.37
2018-07-03T01:44:26.696Z,2.43
2018-07-03T01:46:54.808Z,2.60
2018-07-03T01:49:22.891Z,2.33
2018-07-03T01:51:51.020Z,2.23
2018-07-03T01:54:19.146Z,2.20
2018-07-03T01:59:21.824Z,1.83
2018-07-03T02:01:49.953Z,1.60
2018-07-03T02:04:18.063Z,2.50
2018-07-03T02:06:46.183Z,1.70
2018-07-03T02:09:14.554Z,2.00
2018-07-03T02:11:43.779Z,2.67
2018-07-03T02:14:11.674Z,1.80
2018-07-03T02:16:39.801Z,2.47
2018-07-03T02:19:07.935Z,2.23
2018-07-03T02:21:36.078Z,3.10
2018-07-03T02:24:04.646Z,2.80
2018-07-03T02:26:32.806Z,3.13
2018-07-03T02:29:00.929Z,2.70
2018-07-03T02:31:29.053Z,2.73
2018-07-03T02:33:57.156Z,3.30
2018-07-03T02:36:25.283Z,2.93
2018-07-03T02:38:53.504Z,3.20
2018-07-03T02:41:21.647Z,2.77
2018-07-03T02:43:49.741Z,2.93
2018-07-03T02:46:17.880Z,2.73
2018-07-03T02:48:46.035Z,2.83
2018-07-03T02:51:14.181Z,2.90
2018-07-03T02:53:42.345Z,3.20
2018-07-03T02:56:10.217Z,3.70
2018-07-03T02:58:38.356Z,3.60
2018-07-03T03:01:06.760Z,3.80
2018-07-03T03:03:34.911Z,4.30
2018-07-03T03:06:03.016Z,3.60
2018-07-03T03:08:30.909Z,3.07
2018-07-03T03:10:58.990Z,2.20
2018-07-03T03:13:27.103Z,2.40
2018-07-03T03:15:55.234Z,2.23
2018-07-03T03:18:23.341Z,2.20
2018-07-03T03:20:51.459Z,2.40
2018-07-03T03:23:19.587Z,2.60
2018-07-03T03:25:47.677Z,3.20
2018-07-03T03:28:15.812Z,3.10
2018-07-03T03:30:43.947Z,3.80
2018-07-03T03:33:12.056Z,4.03
2018-07-03T03:35:40.188Z,3.80
2018-07-03T03:38:08.135Z,3.60
2018-07-03T03:40:36.270Z,3.50
2018-07-03T03:43:04.397Z,3.90
2018-07-03T03:45:32.272Z,3.60
2018-07-03T03:48:00.384Z,2.70
2018-07-03T03:50:28.496Z,3.90
2018-07-03T03:52:56.601Z,3.17
2018-07-03T03:55:24.700Z,3.23
2018-07-03T03:57:52.808Z,3.50
2018-07-03T04:00:20.914Z,4.07
2018-07-03T04:02:49.055Z,3.80
2018-07-03T04:05:17.215Z,3.70
2018-07-03T04:07:45.361Z,3.70
2018-07-03T04:10:13.579Z,3.40
2018-07-03T04:12:41.731Z,3.57
2018-07-03T04:15:09.568Z,3.87
2018-07-03T04:17:37.703Z,3.70
2018-07-03T04:20:05.956Z,3.30
2018-07-03T04:22:34.064Z,3.70
2018-07-03T04:25:02.163Z,3.10
2018-07-03T04:27:30.291Z,3.10
2018-07-03T04:29:58.436Z,3.63
2018-07-03T04:32:26.559Z,4.13
2018-07-03T04:34:54.475Z,4.93
2018-07-03T04:37:22.591Z,4.30
2018-07-03T04:39:50.696Z,4.20
2018-07-03T04:42:19.042Z,4.33
2018-07-03T04:44:46.938Z,3.40
2018-07-03T04:47:15.076Z,3.80
2018-07-03T04:49:43.187Z,3.17
2018-07-03T04:52:11.310Z,2.80
2018-07-03T04:54:39.410Z,2.50
2018-07-03T04:57:07.318Z,2.63
2018-07-03T04:59:36.260Z,2.60
2018-07-03T05:02:04.388Z,3.10
2018-07-03T05:04:32.489Z,2.60
2018-07-03T05:07:00.587Z,2.70
2018-07-03T05:09:28.721Z,2.70
2018-07-03T05:11:56.831Z,2.40
2018-07-03T05:14:24.722Z,2.60
2018-07-03T05:16:58.697Z,2.30
2018-07-03T05:19:27.710Z,3.23
2018-07-03T05:21:55.815Z,3.03
2018-07-03T05:24:23.943Z,3.10
2018-07-03T05:26:52.024Z,2.80
2018-07-03T05:29:20.280Z,2.73
2018-07-03T05:31:48.416Z,2.73
2018-07-03T05:34:16.513Z,2.00
2018-07-03T05:36:44.612Z,2.17
2018-07-03T05:39:13.400Z,2.10
2018-07-03T05:41:41.275Z,2.53
2018-07-03T05:44:09.592Z,1.87
2018-07-03T05:46:38.623Z,2.00
2018-07-03T05:49:06.751Z,1.90
2018-07-03T05:51:34.860Z,2.10
2018-07-03T05:54:02.968Z,2.00
2018-07-03T05:56:31.127Z,1.90
2018-07-03T05:58:59.188Z,1.87
2018-07-03T06:01:27.283Z,1.70
2018-07-03T06:03:55.247Z,1.50
2018-07-03T06:06:23.315Z,1.40
2018-07-03T06:08:51.409Z,1.70
2018-07-03T06:11:19.522Z,1.30
2018-07-03T06:13:47.641Z,1.60
2018-07-03T06:16:15.520Z,1.30
2018-07-03T06:18:43.638Z,2.13
2018-07-03T06:21:11.749Z,1.57
2018-07-03T06:23:40.359Z,1.53
2018-07-03T06:26:08.460Z,1.40
2018-07-03T06:28:36.569Z,1.47
2018-07-03T06:31:04.691Z,2.67
2018-07-03T06:33:32.792Z,1.93
2018-07-03T06:36:00.892Z,1.73
2018-07-03T06:38:28.770Z,1.63
2018-07-03T06:40:56.698Z,1.10
2018-07-03T06:43:24.876Z,1.40
2018-07-03T06:45:53.000Z,1.40
2018-07-03T06:48:21.083Z,2.20
2018-07-03T06:50:49.203Z,1.50
2018-07-03T06:53:17.340Z,1.30
2018-07-03T06:55:45.447Z,1.30
2018-07-03T06:58:13.716Z,1.47
2018-07-03T07:00:41.828Z,1.37
2018-07-03T07:03:09.927Z,1.27
2018-07-03T07:05:38.042Z,1.00
2018-07-03T07:08:06.170Z,1.30
2018-07-03T07:10:34.271Z,1.43
2018-07-03T07:13:02.373Z,1.20
2018-07-03T07:15:30.489Z,1.30
2018-07-03T07:17:58.599Z,1.20
2018-07-03T07:20:26.694Z,1.40
2018-07-03T07:22:54.808Z,1.20
2018-07-03T07:25:22.923Z,1.40
2018-07-03T07:27:51.060Z,1.30
2018-07-03T07:30:19.177Z,1.10
2018-07-03T07:32:47.445Z,1.10
2018-07-03T07:35:15.547Z,1.20
2018-07-03T07:37:43.647Z,1.70
2018-07-03T07:40:11.755Z,1.67
2018-07-03T07:42:39.847Z,1.47
2018-07-03T07:45:08.038Z,1.37
2018-07-03T07:47:36.503Z,1.50
2018-07-03T07:50:04.564Z,1.80
2018-07-03T07:52:32.675Z,1.40
2018-07-03T07:55:00.927Z,1.10
2018-07-03T07:57:29.058Z,1.30
2018-07-03T07:59:57.150Z,1.40
2018-07-03T08:02:25.267Z,1.43
2018-07-03T08:04:53.371Z,1.23
2018-07-03T08:07:21.502Z,1.10
2018-07-03T08:09:49.603Z,2.93
2018-07-03T08:12:17.727Z,3.20
2018-07-03T08:14:45.847Z,2.17
2018-07-03T08:17:13.990Z,1.90
2018-07-03T08:19:42.091Z,1.50
2018-07-03T08:22:10.236Z,1.60
2018-07-03T08:24:38.406Z,0.90
2018-07-03T08:27:06.535Z,1.20
2018-07-03T08:29:34.696Z,1.13
2018-07-03T08:32:02.808Z,1.00
2018-07-03T08:34:30.912Z,1.00
2018-07-03T08:36:58.801Z,1.13
2018-07-03T08:39:27.094Z,1.13
2018-07-03T08:41:55.200Z,0.80
2018-07-03T08:44:23.299Z,0.90
2018-07-03T08:46:51.199Z,1.00
2018-07-03T08:49:19.300Z,1.90
2018-07-03T08:51:47.435Z,1.33
2018-07-03T08:54:15.784Z,1.20
2018-07-03T08:56:43.936Z,3.30
2018-07-03T08:59:12.027Z,2.00
2018-07-03T09:01:40.145Z,1.37
2018-07-03T09:04:08.273Z,1.30
2018-07-03T09:06:36.362Z,1.00
2018-07-03T09:09:07.412Z,1.20
2018-07-03T09:11:35.718Z,1.20
2018-07-03T09:14:04.003Z,1.10
2018-07-03T09:16:32.099Z,1.07
2018-07-03T09:19:00.239Z,0.80
2018-07-03T09:21:28.363Z,1.10
2018-07-03T09:23:56.240Z,1.00
2018-07-03T09:26:24.126Z,1.20
2018-07-03T09:28:52.293Z,1.27
2018-07-03T09:31:20.396Z,1.07
2018-07-03T09:33:48.508Z,1.20
2018-07-03T09:36:16.634Z,1.10
2018-07-03T09:38:44.728Z,1.20
2018-07-03T09:41:12.836Z,1.00
2018-07-03T09:43:40.717Z,1.00
2018-07-03T09:46:08.831Z,1.20
2018-07-03T09:48:36.936Z,1.00
2018-07-03T09:51:05.080Z,1.10
2018-07-03T09:53:33.172Z,1.50
2018-07-03T09:56:01.311Z,1.43
2018-07-03T09:58:29.400Z,0.97
2018-07-03T10:00:58.116Z,1.10
2018-07-03T10:03:27.467Z,1.17
2018-07-03T10:05:58.410Z,1.03
2018-07-03T10:08:27.291Z,0.87
2018-07-03T10:10:55.399Z,1.30
2018-07-03T10:13:23.520Z,1.10
2018-07-03T10:15:51.612Z,1.10
2018-07-03T10:18:19.717Z,1.63
2018-07-03T10:20:47.829Z,1.70
2018-07-03T10:23:15.725Z,1.20
2018-07-03T10:25:43.807Z,0.90
2018-07-03T10:28:15.147Z,1.00
2018-07-03T10:30:43.234Z,1.00
2018-07-03T10:33:11.389Z,1.20
2018-07-03T10:35:39.535Z,1.10
2018-07-03T10:38:07.643Z,1.00
2018-07-03T10:40:35.743Z,1.07
2018-07-03T10:43:03.830Z,0.93
2018-07-03T10:45:31.952Z,1.40
2018-07-03T10:48:00.060Z,1.60
2018-07-03T10:50:28.168Z,1.30
2018-07-03T10:52:56.141Z,1.23
2018-07-03T10:55:24.019Z,1.10
2018-07-03T10:57:52.132Z,1.30
2018-07-03T11:00:20.223Z,1.50
2018-07-03T11:02:48.316Z,1.03
2018-07-03T11:05:16.192Z,1.07
2018-07-03T11:07:44.300Z,1.00
2018-07-03T11:10:12.398Z,1.20
2018-07-03T11:12:40.508Z,1.20
2018-07-03T11:15:08.443Z,1.03
2018-07-03T11:17:36.540Z,0.90
2018-07-03T11:20:07.970Z,0.90
2018-07-03T11:22:36.172Z,1.00
2018-07-03T11:25:04.493Z,1.30
2018-07-03T11:27:32.611Z,0.97
2018-07-03T11:30:00.743Z,1.30
2018-07-03T11:32:28.844Z,0.90
2018-07-03T11:34:56.939Z,1.33
2018-07-03T11:37:25.063Z,1.30
2018-07-03T11:39:53.163Z,2.23
2018-07-03T11:42:21.272Z,1.90
2018-07-03T11:44:49.404Z,1.90
2018-07-03T11:47:17.492Z,1.60
2018-07-03T11:49:45.585Z,1.70
2018-07-03T11:52:13.687Z,1.87
2018-07-03T11:54:41.836Z,1.50
2018-07-03T11:57:09.819Z,1.50
2018-07-03T11:59:38.108Z,1.43
2018-07-03T12:02:06.238Z,1.37
2018-07-03T12:04:34.511Z,1.40
2018-07-03T12:07:02.623Z,1.50
2018-07-03T12:09:30.787Z,1.50
2018-07-03T12:11:58.883Z,1.30
2018-07-03T12:14:27.007Z,1.10
2018-07-03T12:16:55.110Z,1.50
2018-07-03T12:19:23.235Z,1.23
2018-07-03T12:21:51.328Z,1.30
2018-07-03T12:24:19.283Z,1.23
2018-07-03T12:26:47.440Z,1.67
2018-07-03T12:29:15.697Z,1.40
2018-07-03T12:31:43.990Z,2.00
2018-07-03T12:34:12.151Z,2.07
2018-07-03T12:36:40.407Z,1.50
2018-07-03T12:39:09.729Z,1.50
2018-07-03T12:41:37.940Z,1.63
2018-07-03T12:44:06.234Z,1.60
2018-07-03T12:46:34.356Z,1.37
2018-07-03T12:49:02.594Z,1.50
2018-07-03T12:51:30.704Z,1.50
2018-07-03T12:53:58.814Z,1.40
2018-07-03T12:56:27.000Z,1.57
2018-07-03T12:58:55.484Z,1.60
2018-07-03T13:01:23.655Z,1.73
2018-07-03T13:03:51.765Z,1.60
2018-07-03T13:06:20.152Z,1.47
2018-07-03T13:08:48.350Z,2.00
2018-07-03T13:11:16.545Z,1.37
2018-07-03T13:13:44.666Z,1.70
2018-07-03T13:16:13.022Z,1.90
2018-07-03T13:18:41.270Z,1.70
2018-07-03T13:21:09.404Z,1.67
2018-07-03T13:23:37.567Z,1.90
2018-07-03T13:26:05.814Z,2.23
2018-07-03T13:28:33.795Z,2.23
2018-07-03T13:31:01.947Z,1.70
2018-07-03T13:33:30.104Z,2.10
2018-07-03T13:35:58.207Z,1.57
2018-07-03T13:38:26.332Z,2.00
2018-07-03T13:40:54.475Z,1.80
2018-07-03T13:43:22.559Z,2.10
2018-07-03T13:45:50.786Z,1.93
2018-07-03T13:48:19.037Z,1.70
2018-07-03T13:50:47.245Z,1.97
2018-07-03T13:53:15.460Z,2.07
2018-07-03T13:55:43.563Z,1.83
2018-07-03T13:58:11.672Z,1.60
2018-07-03T14:00:39.615Z,1.90
2018-07-03T14:03:07.725Z,2.00
2018-07-03T14:05:35.916Z,2.40
2018-07-03T14:08:04.148Z,1.60
2018-07-03T14:10:32.619Z,1.80
2018-07-03T14:13:00.917Z,2.00
2018-07-03T14:15:29.057Z,2.17
2018-07-03T14:17:57.169Z,1.97
2018-07-03T14:20:25.458Z,1.83
2018-07-03T14:22:53.644Z,1.80
2018-07-03T14:25:21.942Z,2.40
2018-07-03T14:27:50.028Z,2.87
2018-07-03T14:30:18.337Z,3.30
2018-07-03T14:32:46.683Z,2.50
2018-07-03T14:35:14.887Z,2.33
2018-07-03T14:37:43.027Z,1.90
2018-07-03T14:40:11.120Z,2.20
2018-07-03T14:42:39.409Z,2.40
2018-07-03T14:45:07.584Z,2.40
2018-07-03T14:47:35.861Z,2.20
2018-07-03T14:50:03.778Z,2.27
2018-07-03T14:52:31.984Z,2.47
2018-07-03T14:55:00.252Z,1.83
2018-07-03T14:57:28.903Z,2.03
2018-07-03T14:59:57.025Z,2.03
2018-07-03T15:02:25.414Z,2.20
2018-07-03T15:04:53.601Z,2.20
2018-07-03T15:07:21.707Z,2.07
2018-07-03T15:09:49.837Z,2.10
2018-07-03T15:12:17.957Z,2.50
2018-07-03T15:14:46.085Z,1.90
2018-07-03T15:17:14.217Z,1.93
2018-07-03T15:19:47.951Z,2.00
2018-07-03T15:22:16.364Z,2.10
2018-07-03T15:24:44.510Z,2.20
2018-07-03T15:27:12.661Z,2.27
2018-07-03T15:29:40.762Z,2.13
2018-07-03T15:32:08.896Z,2.20
2018-07-03T15:34:36.991Z,2.70
2018-07-03T15:37:05.187Z,3.03
2018-07-03T15:39:33.298Z,2.70
2018-07-03T15:42:01.419Z,2.40
2018-07-03T15:44:40.871Z,2.43
2018-07-03T15:47:08.987Z,2.00
2018-07-03T15:49:37.097Z,2.30
2018-07-03T15:52:05.252Z,1.90
2018-07-03T15:54:33.365Z,2.00
2018-07-03T15:57:01.461Z,2.00
2018-07-03T15:59:29.732Z,2.07
2018-07-03T16:01:57.668Z,2.60
2018-07-03T16:05:35.329Z,2.40
2018-07-03T16:08:45.849Z,2.10
2018-07-03T16:11:14.048Z,2.00
2018-07-03T16:13:42.259Z,2.23
2018-07-03T16:16:10.380Z,2.07
2018-07-03T16:18:38.517Z,2.20
2018-07-03T16:21:06.682Z,2.23
2018-07-03T16:23:34.775Z,2.47
2018-07-03T16:26:02.883Z,2.20
2018-07-03T16:28:31.000Z,3.90
2018-07-03T16:30:59.051Z,5.13
2018-07-03T16:33:27.185Z,3.60
2018-07-03T16:35:55.485Z,3.17
2018-07-03T16:38:23.399Z,2.87
2018-07-03T16:40:51.544Z,2.70
2018-07-03T16:43:19.888Z,2.80
2018-07-03T16:45:47.768Z,2.40
2018-07-03T16:48:15.699Z,2.50
2018-07-03T16:50:43.780Z,2.33
2018-07-03T16:53:11.883Z,2.80
2018-07-03T16:55:39.965Z,2.40
2018-07-03T16:58:08.085Z,2.60
2018-07-03T17:00:36.195Z,2.37
2018-07-03T17:03:04.316Z,2.50
2018-07-03T17:05:32.539Z,2.77
2018-07-03T17:08:00.692Z,2.77
2018-07-03T17:10:28.856Z,2.33
2018-07-03T17:12:57.019Z,3.17
2018-07-03T17:15:25.280Z,2.70
2018-07-03T17:17:53.595Z,2.63
2018-07-03T17:20:21.926Z,2.77
2018-07-03T17:22:50.032Z,2.70
2018-07-03T17:25:18.179Z,2.33
2018-07-03T17:27:46.317Z,2.80
2018-07-03T17:30:14.467Z,2.30
2018-07-03T17:32:42.655Z,2.20
2018-07-03T17:35:10.790Z,2.47
2018-07-03T17:37:38.908Z,2.70
2018-07-03T17:40:18.298Z,2.50
2018-07-03T17:43:16.703Z,3.40
2018-07-03T17:45:56.228Z,2.87
2018-07-03T17:48:24.334Z,2.73
2018-07-03T17:50:52.524Z,3.47
2018-07-03T17:53:20.627Z,2.60
2018-07-03T17:55:48.732Z,2.67
2018-07-03T17:58:16.881Z,2.57
2018-07-03T18:00:44.972Z,3.03
2018-07-03T18:03:13.163Z,2.90
2018-07-03T18:05:41.215Z,3.00
2018-07-03T18:08:09.324Z,2.93
2018-07-03T18:10:37.433Z,3.47
2018-07-03T18:13:05.793Z,3.07
2018-07-03T18:15:33.924Z,3.00
2018-07-03T18:18:02.542Z,3.27
2018-07-03T18:20:30.692Z,3.30
2018-07-03T18:22:58.845Z,3.10
2018-07-03T18:25:27.514Z,3.37
2018-07-03T18:27:55.731Z,3.40
2018-07-03T18:30:23.832Z,3.10
2018-07-03T18:32:51.726Z,3.80
2018-07-03T18:35:19.845Z,3.73
2018-07-03T18:37:47.959Z,3.20
2018-07-03T18:40:16.299Z,3.00
2018-07-03T18:42:44.620Z,3.43
2018-07-03T18:45:12.935Z,3.00
2018-07-03T18:47:41.046Z,3.27
2018-07-03T18:50:08.959Z,3.07
2018-07-03T18:52:37.059Z,3.03
2018-07-03T18:55:05.236Z,2.97
2018-07-03T18:57:33.334Z,11.93
2018-07-03T19:00:01.235Z,3.47
2018-07-03T19:02:29.391Z,4.23
2018-07-03T19:04:57.513Z,3.70
2018-07-03T19:07:25.679Z,3.07
2018-07-03T19:09:53.771Z,3.97
2018-07-03T19:12:21.928Z,3.70
2018-07-03T19:14:50.097Z,3.87
2018-07-03T19:17:18.321Z,3.57
2018-07-03T19:19:46.460Z,3.00
2018-07-03T19:22:14.775Z,3.80
2018-07-03T19:24:43.152Z,4.00
2018-07-03T19:27:11.460Z,3.37
2018-07-03T19:29:39.720Z,3.93
2018-07-03T19:32:07.884Z,3.70
2018-07-03T19:34:36.069Z,3.90
2018-07-03T19:37:04.588Z,3.80
2018-07-03T19:39:32.879Z,3.60
2018-07-03T19:42:01.805Z,4.73
2018-07-03T19:44:30.915Z,4.10
2018-07-03T19:46:59.759Z,4.20
2018-07-03T19:49:27.956Z,4.30
2018-07-03T19:51:56.227Z,3.90
2018-07-03T19:54:24.376Z,3.97
2018-07-03T19:56:53.207Z,4.00
2018-07-03T19:59:21.499Z,3.80
2018-07-03T20:01:49.822Z,4.50
2018-07-03T20:04:18.015Z,3.93
2018-07-03T20:06:45.975Z,3.77
2018-07-03T20:09:14.548Z,4.07
2018-07-03T20:11:43.055Z,4.90
2018-07-03T20:14:11.143Z,4.73
2018-07-03T20:16:39.302Z,4.57
2018-07-03T20:19:11.600Z,4.13
2018-07-03T20:21:41.066Z,3.47
2018-07-03T20:24:09.257Z,4.03
2018-07-03T20:26:37.442Z,4.07
2018-07-03T20:29:06.415Z,4.70
2018-07-03T20:31:34.540Z,3.60
2018-07-03T20:34:02.882Z,4.50
2018-07-03T20:36:31.172Z,3.93
2018-07-03T20:38:59.504Z,4.60
2018-07-03T20:41:27.844Z,3.97
2018-07-03T20:43:56.012Z,4.30
2018-07-03T20:46:24.152Z,4.30
2018-07-03T20:48:52.029Z,3.40
2018-07-03T20:51:20.163Z,3.80
2018-07-03T20:53:48.326Z,4.30
2018-07-03T20:56:16.429Z,3.50
2018-07-03T20:58:44.528Z,4.10
2018-07-03T21:01:12.631Z,3.33
2018-07-03T21:03:40.759Z,3.50
2018-07-03T21:06:08.983Z,3.33
2018-07-03T21:08:36.967Z,3.57
2018-07-03T21:11:05.147Z,3.53
2018-07-03T21:13:33.222Z,3.77
2018-07-03T21:16:01.316Z,3.53
2018-07-03T21:18:29.424Z,3.27
2018-07-03T21:20:57.643Z,3.20
2018-07-03T21:23:25.736Z,3.13
2018-07-03T21:25:53.937Z,3.07
2018-07-03T21:28:22.106Z,3.40
2018-07-03T21:30:50.235Z,3.63
2018-07-03T21:33:18.516Z,3.40
2018-07-03T21:35:46.651Z,3.37
2018-07-03T21:38:14.755Z,3.07
2018-07-03T21:40:42.923Z,3.50
2018-07-03T21:43:10.987Z,3.47
2018-07-03T21:45:39.075Z,3.80
2018-07-03T21:48:07.176Z,3.37
2018-07-03T21:50:35.289Z,4.30
2018-07-03T21:53:03.391Z,3.23
2018-07-03T21:55:31.484Z,3.73
2018-07-03T21:57:59.603Z,2.93
2018-07-03T22:00:37.336Z,2.80
2018-07-03T22:03:06.876Z,3.57
2018-07-03T22:05:35.257Z,3.17
2018-07-03T22:08:03.348Z,2.60
2018-07-03T22:10:31.607Z,3.30
2018-07-03T22:12:59.771Z,3.17
2018-07-03T22:15:27.644Z,2.43
2018-07-03T22:17:55.768Z,2.80
2018-07-03T22:20:23.875Z,3.20
2018-07-03T22:22:52.052Z,3.00
2018-07-03T22:25:20.256Z,2.80
2018-07-03T22:27:48.371Z,2.90
2018-07-03T22:30:16.452Z,2.80
2018-07-03T22:32:44.548Z,3.03
2018-07-03T22:35:12.666Z,3.30
2018-07-03T22:37:40.793Z,2.87
2018-07-03T22:40:08.907Z,3.20
2018-07-03T22:42:37.292Z,3.17
2018-07-03T22:45:05.635Z,2.70
2018-07-03T22:47:33.560Z,3.03
2018-07-03T22:50:01.668Z,2.60
2018-07-03T22:52:29.784Z,3.67
2018-07-03T22:54:57.895Z,3.13
2018-07-03T22:57:25.997Z,2.87
2018-07-03T22:59:53.873Z,2.90
2018-07-03T23:02:21.996Z,2.80
2018-07-03T23:04:50.136Z,2.90
2018-07-03T23:07:18.247Z,2.73
2018-07-03T23:09:46.361Z,2.77
2018-07-03T23:12:20.198Z,2.97
2018-07-03T23:14:50.048Z,3.03
2018-07-03T23:17:18.144Z,2.77
2018-07-03T23:19:46.626Z,3.13
2018-07-03T23:22:14.514Z,2.67
2018-07-03T23:24:43.297Z,3.10
2018-07-03T23:27:11.748Z,2.77
2018-07-03T23:29:46.471Z,3.00
2018-07-03T23:32:14.600Z,2.83
2018-07-03T23:34:42.708Z,2.80
2018-07-03T23:37:11.115Z,2.40
2018-07-03T23:39:38.998Z,2.73
2018-07-03T23:42:06.879Z,3.30
2018-07-03T23:44:34.963Z,2.53
2018-07-03T23:47:14.442Z,2.80
2018-07-03T23:49:54.463Z,2.50
2018-07-03T23:52:34.041Z,3.00
2018-07-03T23:55:13.610Z,2.50
2018-07-03T23:57:53.208Z,2.77
